Terminal Aerodrome Forecast
Issued by NWS North Platte, NE

Home | Current Version | Previous Version | Graphics & Text | Print | Product List | Glossary On
Versions: 1 2 3 4 5 6 7 8 9 10 11 12 13 14 15 16 17 18
000
FTUS43 KLBF 161700
TAFVTN
TAF
KVTN 161740Z 1618/1718 33015G25KT P6SM OVC012
      TEMPO 1618/1621 -SHRA OVC015
     FM170000 36012KT P6SM SCT016 BKN100
     FM170600 VRB05KT P6SM BKN100
     FM171500 13009KT P6SM BKN050=

USA.gov is the U.S. government's official web portal to all federal, state and local government web resources and services.